createdAt,value
2018-08-24T00:00:11.528Z,79.10
2018-08-24T00:02:40.480Z,78.48
2018-08-24T00:05:09.369Z,78.76
2018-08-24T00:07:38.270Z,78.78
2018-08-24T00:10:07.260Z,79.93
2018-08-24T00:12:36.197Z,79.65
2018-08-24T00:15:05.318Z,79.62
2018-08-24T00:17:34.264Z,80.67
2018-08-24T00:20:03.216Z,80.21
2018-08-24T00:22:32.101Z,80.00
2018-08-24T00:25:01.045Z,79.68
2018-08-24T00:27:29.960Z,79.39
2018-08-24T00:29:58.870Z,79.54
2018-08-24T00:32:27.776Z,79.88
2018-08-24T00:34:56.738Z,79.69
2018-08-24T00:37:25.708Z,79.83
2018-08-24T00:39:54.616Z,79.65
2018-08-24T00:42:23.548Z,79.08
2018-08-24T00:44:52.519Z,78.56
2018-08-24T00:47:21.418Z,78.76
2018-08-24T00:49:50.360Z,78.17
2018-08-24T00:52:19.863Z,76.95
2018-08-24T00:54:48.823Z,77.18
2018-08-24T00:57:17.735Z,76.92
2018-08-24T00:59:46.633Z,76.21
2018-08-24T01:02:15.607Z,75.96
2018-08-24T01:04:44.527Z,75.96
2018-08-24T01:07:14.409Z,74.79
2018-08-24T01:09:43.717Z,74.70
2018-08-24T01:12:14.758Z,74.10
2018-08-24T01:14:48.772Z,74.38
2018-08-24T01:17:22.884Z,74.79
2018-08-24T01:19:51.839Z,75.62
2018-08-24T01:22:20.783Z,75.41
2018-08-24T01:24:49.676Z,76.26
2018-08-24T01:27:18.653Z,76.90
2018-08-24T01:29:47.572Z,77.23
2018-08-24T01:32:16.469Z,77.26
2018-08-24T01:34:45.419Z,78.88
2018-08-24T01:37:14.357Z,79.34
2018-08-24T01:39:43.271Z,79.90
2018-08-24T01:42:12.183Z,80.16
2018-08-24T01:44:41.140Z,80.68
2018-08-24T01:47:10.098Z,81.97
2018-08-24T01:49:39.032Z,82.04
2018-08-24T01:52:08.025Z,81.52
2018-08-24T01:54:36.928Z,81.60
2018-08-24T01:57:21.953Z,80.73
2018-08-24T01:59:50.900Z,80.66
2018-08-24T02:02:19.882Z,80.17
2018-08-24T02:04:48.794Z,79.88
2018-08-24T02:07:17.783Z,78.98
2018-08-24T02:09:46.760Z,79.14
2018-08-24T02:12:20.919Z,78.71
2018-08-24T02:14:49.892Z,77.91
2018-08-24T02:17:24.026Z,78.00
2018-08-24T02:19:58.253Z,77.18
2018-08-24T02:22:27.150Z,76.08
2018-08-24T02:25:01.600Z,75.12
2018-08-24T02:27:30.546Z,75.90
2018-08-24T02:29:59.458Z,75.88
2018-08-24T02:32:28.327Z,75.58
2018-08-24T02:34:59.692Z,75.87
2018-08-24T02:37:29.686Z,75.72
2018-08-24T02:39:58.564Z,75.56
2018-08-24T02:42:28.584Z,75.44
2018-08-24T02:44:57.520Z,75.74
2018-08-24T02:47:26.374Z,74.75
2018-08-24T02:49:55.640Z,74.34
2018-08-24T02:52:24.515Z,73.59
2018-08-24T02:54:53.403Z,73.02
2018-08-24T02:57:22.412Z,72.95
2018-08-24T02:59:51.308Z,73.45
2018-08-24T03:02:20.257Z,73.63
2018-08-24T03:04:49.147Z,73.26
2018-08-24T03:07:18.032Z,73.38
2018-08-24T03:09:46.942Z,73.30
2018-08-24T03:12:15.834Z,72.98
2018-08-24T03:14:44.746Z,72.56
2018-08-24T03:17:18.864Z,72.56
2018-08-24T03:19:47.924Z,72.37
2018-08-24T03:22:22.866Z,72.71
2018-08-24T03:24:51.770Z,71.70
2018-08-24T03:27:20.746Z,71.33
2018-08-24T03:29:49.699Z,69.77
2018-08-24T03:32:24.899Z,69.29
2018-08-24T03:34:53.777Z,68.72
2018-08-24T03:37:22.688Z,68.11
2018-08-24T03:39:51.619Z,68.19
2018-08-24T03:42:20.555Z,67.26
2018-08-24T03:44:49.585Z,67.54
2018-08-24T03:47:18.512Z,67.42
2018-08-24T03:49:47.411Z,67.55
2018-08-24T03:52:16.298Z,67.43
2018-08-24T03:54:50.941Z,66.82
2018-08-24T03:57:25.483Z,67.57
2018-08-24T03:59:54.367Z,67.07
2018-08-24T04:02:23.262Z,67.21
2018-08-24T04:04:52.326Z,66.81
2018-08-24T04:07:22.256Z,66.50
2018-08-24T04:09:51.488Z,66.79
2018-08-24T04:12:20.794Z,66.48
2018-08-24T04:14:50.037Z,66.63
2018-08-24T04:17:24.681Z,65.97
2018-08-24T04:19:54.144Z,65.95
2018-08-24T04:22:23.349Z,65.83
2018-08-24T04:24:52.680Z,65.95
2018-08-24T04:27:22.029Z,65.57
2018-08-24T04:29:51.293Z,65.11
2018-08-24T04:32:21.585Z,65.10
2018-08-24T04:34:51.153Z,63.76
2018-08-24T04:37:21.249Z,64.17
2018-08-24T04:39:50.528Z,63.20
2018-08-24T04:42:19.820Z,63.42
2018-08-24T04:44:49.022Z,62.55
2018-08-24T04:47:18.357Z,62.77
2018-08-24T04:49:47.755Z,62.41
2018-08-24T04:52:17.056Z,61.87
2018-08-24T04:54:46.436Z,61.62
2018-08-24T04:57:15.620Z,61.56
2018-08-24T04:59:44.934Z,61.11
2018-08-24T05:02:14.078Z,60.24
2018-08-24T05:04:43.354Z,60.48
2018-08-24T05:07:12.607Z,60.17
2018-08-24T05:09:52.193Z,59.37
2018-08-24T05:12:21.404Z,60.05
2018-08-24T05:14:50.811Z,59.44
2018-08-24T05:17:20.881Z,59.05
2018-08-24T05:19:53.810Z,59.15
2018-08-24T05:22:23.189Z,58.95
2018-08-24T05:24:52.598Z,58.67
2018-08-24T05:27:21.718Z,59.18
2018-08-24T05:29:51.138Z,58.95
2018-08-24T05:32:21.486Z,58.36
2018-08-24T05:34:50.832Z,58.75
2018-08-24T05:37:20.287Z,58.44
2018-08-24T05:39:49.596Z,58.72
2018-08-24T05:42:20.154Z,57.93
2018-08-24T05:44:49.425Z,57.63
2018-08-24T05:47:19.271Z,57.55
2018-08-24T05:49:48.516Z,57.49
2018-08-24T05:52:17.932Z,57.59
2018-08-24T05:54:47.287Z,57.17
2018-08-24T05:57:16.751Z,57.52
2018-08-24T05:59:46.021Z,56.90
2018-08-24T06:02:15.354Z,57.03
2018-08-24T06:04:44.645Z,57.36
2018-08-24T06:07:13.944Z,57.53
2018-08-24T06:09:43.237Z,56.85
2018-08-24T06:12:12.598Z,57.28
2018-08-24T06:14:41.955Z,57.17
2018-08-24T06:17:16.360Z,57.01
2018-08-24T06:19:45.703Z,56.96
2018-08-24T06:22:14.925Z,57.53
2018-08-24T06:24:44.155Z,57.31
2018-08-24T06:27:13.395Z,57.13
2018-08-24T06:29:42.671Z,57.19
2018-08-24T06:32:11.999Z,56.84
2018-08-24T06:34:44.885Z,57.43
2018-08-24T06:37:15.239Z,57.25
2018-08-24T06:39:44.444Z,57.59
2018-08-24T06:42:13.662Z,57.32
2018-08-24T06:44:42.995Z,57.46
2018-08-24T06:47:12.274Z,56.76
2018-08-24T06:49:41.562Z,56.69
2018-08-24T06:52:10.788Z,56.12
2018-08-24T06:54:40.240Z,55.77
2018-08-24T06:57:09.570Z,56.29
2018-08-24T06:59:38.861Z,55.91
2018-08-24T07:02:08.272Z,55.13
2018-08-24T07:04:37.546Z,54.58
2018-08-24T07:07:06.804Z,54.35
2018-08-24T07:09:38.365Z,54.02
2018-08-24T07:12:11.079Z,54.41
2018-08-24T07:14:40.877Z,53.18
2018-08-24T07:17:11.092Z,51.78
2018-08-24T07:19:40.389Z,51.27
2018-08-24T07:22:15.352Z,48.95
2018-08-24T07:24:44.735Z,48.60
2018-08-24T07:27:14.217Z,47.94
2018-08-24T07:29:43.564Z,47.12
2018-08-24T07:32:12.738Z,48.05
2018-08-24T07:34:42.047Z,48.69
2018-08-24T07:37:11.349Z,48.97
2018-08-24T07:39:46.071Z,48.35
2018-08-24T07:42:20.813Z,47.81
2018-08-24T07:44:54.061Z,46.51
2018-08-24T07:47:24.127Z,47.06
2018-08-24T07:49:53.798Z,46.30
2018-08-24T07:52:22.998Z,45.73
2018-08-24T07:54:52.307Z,45.18
2018-08-24T07:57:21.643Z,46.45
2018-08-24T07:59:50.977Z,47.15
2018-08-24T08:02:24.576Z,47.70
2018-08-24T08:04:53.932Z,47.15
2018-08-24T08:07:23.229Z,48.66
2018-08-24T08:09:52.630Z,48.02
2018-08-24T08:12:21.849Z,47.90
2018-08-24T08:14:56.472Z,47.24
2018-08-24T08:17:25.820Z,46.83
2018-08-24T08:19:54.949Z,46.75
2018-08-24T08:22:24.297Z,46.75
2018-08-24T08:24:53.560Z,46.32
2018-08-24T08:27:22.992Z,47.25
2018-08-24T08:29:57.586Z,47.57
2018-08-24T08:32:27.196Z,47.05
2018-08-24T08:34:56.430Z,46.67
2018-08-24T08:37:25.728Z,46.33
2018-08-24T08:40:00.088Z,46.95
2018-08-24T08:42:29.625Z,48.23
2018-08-24T08:44:59.272Z,50.08
2018-08-24T08:47:28.539Z,48.21
2018-08-24T08:49:57.690Z,48.48
2018-08-24T08:52:26.944Z,47.19
2018-08-24T08:54:57.438Z,46.32
2018-08-24T08:57:26.820Z,46.97
2018-08-24T08:59:56.072Z,46.71
2018-08-24T09:02:25.246Z,46.14
2018-08-24T09:04:54.502Z,46.25
2018-08-24T09:07:23.974Z,46.41
2018-08-24T09:09:53.177Z,46.70
2018-08-24T09:12:22.394Z,47.96
2018-08-24T09:14:51.675Z,48.49
2018-08-24T09:17:26.248Z,49.63
2018-08-24T09:20:00.555Z,50.60
2018-08-24T09:22:34.996Z,51.56
2018-08-24T09:25:09.514Z,52.43
2018-08-24T09:28:41.494Z,54.09
2018-08-24T09:31:14.713Z,53.42
2018-08-24T09:33:43.809Z,54.39
2018-08-24T09:36:19.569Z,53.82
2018-08-24T09:38:49.764Z,53.59
2018-08-24T09:41:19.228Z,53.62
2018-08-24T09:43:53.799Z,52.92
2018-08-24T09:47:25.818Z,50.61
2018-08-24T09:49:55.039Z,49.89
2018-08-24T09:52:27.034Z,49.16
2018-08-24T09:54:56.955Z,47.80
2018-08-24T09:57:25.941Z,47.42
2018-08-24T09:59:54.881Z,47.42
2018-08-24T10:02:25.990Z,47.46
2018-08-24T10:05:00.162Z,46.36
2018-08-24T10:07:38.275Z,45.88
2018-08-24T10:10:07.547Z,45.97
2018-08-24T10:12:37.599Z,46.63
2018-08-24T10:15:08.186Z,46.67
2018-08-24T10:17:37.177Z,47.31
2018-08-24T10:20:06.841Z,47.05
2018-08-24T10:22:37.846Z,46.81
2018-08-24T10:25:12.461Z,46.15
2018-08-24T10:27:46.811Z,45.84
2018-08-24T10:30:15.762Z,46.52
2018-08-24T10:32:44.691Z,46.76
2018-08-24T10:35:13.633Z,47.06
2018-08-24T10:37:42.610Z,47.52
2018-08-24T10:40:11.524Z,47.18
2018-08-24T10:42:41.590Z,46.65
2018-08-24T10:45:10.576Z,46.57
2018-08-24T10:47:39.480Z,46.82
2018-08-24T10:50:08.333Z,47.18
2018-08-24T10:52:37.407Z,47.87
2018-08-24T10:55:09.475Z,47.61
2018-08-24T10:57:38.413Z,46.37
2018-08-24T11:00:07.331Z,45.33
2018-08-24T11:02:36.272Z,46.21
2018-08-24T11:05:05.193Z,46.28
2018-08-24T11:07:35.978Z,46.37
2018-08-24T11:10:05.170Z,46.00
2018-08-24T11:12:34.224Z,45.89
2018-08-24T11:15:04.592Z,45.48
2018-08-24T11:18:35.943Z,46.97
2018-08-24T11:21:04.888Z,47.12
2018-08-24T11:23:33.920Z,47.15
2018-08-24T11:26:03.006Z,47.38
2018-08-24T11:28:31.919Z,46.77
2018-08-24T11:31:00.958Z,47.13
2018-08-24T11:33:29.912Z,47.19
2018-08-24T11:35:58.900Z,46.17
2018-08-24T11:38:27.775Z,46.54
2018-08-24T11:40:56.677Z,46.39
2018-08-24T11:43:25.573Z,46.16
2018-08-24T11:45:59.946Z,46.08
2018-08-24T11:48:29.149Z,46.74
2018-08-24T11:50:59.209Z,47.45
2018-08-24T11:53:28.213Z,47.24
2018-08-24T11:55:57.159Z,46.88
2018-08-24T11:58:26.071Z,45.00
2018-08-24T12:00:54.983Z,44.64
2018-08-24T12:03:23.900Z,44.19
2018-08-24T12:05:53.550Z,44.07
2018-08-24T12:08:22.566Z,44.02
2018-08-24T12:10:51.473Z,43.50
2018-08-24T12:13:20.368Z,44.33
2018-08-24T12:15:49.291Z,44.76
2018-08-24T12:18:18.349Z,45.96
2018-08-24T12:20:47.241Z,46.40
2018-08-24T12:23:16.290Z,46.12
2018-08-24T12:25:45.195Z,46.14
2018-08-24T12:28:14.173Z,45.60
2018-08-24T12:30:43.368Z,46.16
2018-08-24T12:33:12.297Z,46.16
2018-08-24T12:35:41.191Z,45.71
2018-08-24T12:38:10.206Z,44.02
2018-08-24T12:40:39.486Z,44.56
2018-08-24T12:43:08.465Z,44.86
2018-08-24T12:45:37.384Z,44.82
2018-08-24T12:48:06.331Z,44.65
2018-08-24T12:50:35.243Z,43.89
2018-08-24T12:53:04.178Z,43.75
2018-08-24T12:55:33.100Z,43.24
2018-08-24T12:58:01.992Z,43.32
2018-08-24T13:00:31.216Z,43.17
2018-08-24T13:03:00.193Z,42.74
2018-08-24T13:06:32.200Z,42.60
2018-08-24T13:09:01.156Z,42.71
2018-08-24T13:11:35.778Z,42.62
2018-08-24T13:14:05.088Z,42.01
2018-08-24T13:16:34.322Z,42.20
2018-08-24T13:19:03.316Z,42.64
2018-08-24T13:21:32.424Z,43.51
2018-08-24T13:24:01.611Z,43.86
2018-08-24T13:26:30.786Z,43.52
2018-08-24T13:28:59.683Z,44.35
2018-08-24T13:31:28.655Z,44.32
2018-08-24T13:33:57.890Z,45.02
2018-08-24T13:36:27.145Z,44.91
2018-08-24T13:38:56.325Z,44.62
2018-08-24T13:41:25.420Z,42.41
2018-08-24T13:43:54.593Z,42.58
2018-08-24T13:46:24.057Z,42.86
2018-08-24T13:48:54.013Z,43.48
2018-08-24T13:51:22.940Z,44.37
2018-08-24T13:53:52.129Z,44.59
2018-08-24T13:56:21.110Z,43.84
2018-08-24T13:58:50.086Z,44.31
2018-08-24T14:01:19.014Z,43.97
2018-08-24T14:03:47.953Z,43.51
2018-08-24T14:06:17.018Z,43.97
2018-08-24T14:08:46.183Z,44.09
2018-08-24T14:11:15.100Z,44.64
2018-08-24T14:13:44.310Z,45.31
2018-08-24T14:16:13.488Z,44.81
2018-08-24T14:18:42.644Z,44.28
2018-08-24T14:21:11.797Z,44.21
2018-08-24T14:23:40.976Z,43.92
2018-08-24T14:26:09.936Z,44.18
2018-08-24T14:28:38.808Z,43.94
2018-08-24T14:31:08.337Z,43.91
2018-08-24T14:33:37.529Z,44.05
2018-08-24T14:36:06.972Z,43.53
2018-08-24T14:38:37.365Z,43.20
2018-08-24T14:41:06.323Z,43.78
2018-08-24T14:43:35.326Z,43.98
2018-08-24T14:46:04.318Z,44.15
2018-08-24T14:48:33.583Z,45.12
2018-08-24T14:51:02.847Z,44.43
2018-08-24T14:53:33.201Z,44.74
2018-08-24T14:56:02.153Z,44.88
2018-08-24T14:58:31.147Z,44.99
2018-08-24T15:01:00.349Z,44.61
2018-08-24T15:03:29.611Z,44.42
2018-08-24T15:05:59.760Z,45.30
2018-08-24T15:08:28.852Z,45.64
2018-08-24T15:10:58.999Z,45.82
2018-08-24T15:13:28.219Z,45.77
2018-08-24T15:15:57.168Z,45.99
2018-08-24T15:18:26.871Z,45.78
2018-08-24T15:20:56.730Z,46.54
2018-08-24T15:23:25.640Z,46.13
2018-08-24T15:25:54.915Z,46.24
2018-08-24T15:28:23.873Z,45.97
2018-08-24T15:30:53.265Z,45.19
2018-08-24T15:33:22.199Z,44.74
2018-08-24T15:35:51.385Z,43.92
2018-08-24T15:38:20.448Z,43.06
2018-08-24T15:40:49.609Z,43.89
2018-08-24T15:43:18.764Z,43.90
2018-08-24T15:45:47.839Z,44.22
2018-08-24T15:48:16.793Z,44.33
2018-08-24T15:50:45.874Z,42.98
2018-08-24T15:53:14.957Z,42.84
2018-08-24T15:55:43.885Z,43.28
2018-08-24T15:58:13.092Z,43.87
2018-08-24T16:00:42.311Z,44.04
2018-08-24T16:03:11.551Z,43.81
2018-08-24T16:05:40.494Z,43.15
2018-08-24T16:08:09.543Z,43.24
2018-08-24T16:10:38.830Z,42.77
2018-08-24T16:13:07.752Z,42.74
2018-08-24T16:15:36.889Z,42.87
2018-08-24T16:18:11.051Z,41.16
2018-08-24T16:20:40.067Z,41.77
2018-08-24T16:23:10.239Z,42.34
2018-08-24T16:25:39.333Z,42.11
2018-08-24T16:28:10.271Z,42.09
2018-08-24T16:30:39.362Z,40.71
2018-08-24T16:33:08.387Z,41.11
2018-08-24T16:35:37.351Z,41.12
2018-08-24T16:38:06.477Z,41.72
2018-08-24T16:40:35.445Z,42.36
2018-08-24T16:43:04.367Z,41.99
2018-08-24T16:45:33.643Z,42.75
2018-08-24T16:48:02.822Z,43.16
2018-08-24T16:50:32.116Z,45.40
2018-08-24T16:53:01.222Z,46.07
2018-08-24T16:55:30.143Z,46.40
2018-08-24T16:57:59.284Z,46.19
2018-08-24T17:00:29.604Z,46.73
2018-08-24T17:02:58.750Z,46.55
2018-08-24T17:05:27.760Z,46.47
2018-08-24T17:07:56.892Z,46.93
2018-08-24T17:10:25.963Z,47.36
2018-08-24T17:12:55.236Z,47.36
2018-08-24T17:15:24.968Z,48.00
2018-08-24T17:17:53.925Z,48.05
2018-08-24T17:20:23.089Z,48.19
2018-08-24T17:22:53.000Z,49.11
2018-08-24T17:25:21.901Z,49.84
2018-08-24T17:27:50.832Z,49.61
2018-08-24T17:30:19.956Z,49.44
2018-08-24T17:32:48.901Z,49.89
2018-08-24T17:35:18.031Z,50.22
2018-08-24T17:37:47.100Z,50.56
2018-08-24T17:40:16.300Z,51.12
2018-08-24T17:42:45.449Z,51.58
2018-08-24T17:45:15.116Z,53.10
2018-08-24T17:47:45.116Z,53.19
2018-08-24T17:50:14.448Z,53.83
2018-08-24T17:52:43.523Z,53.72
2018-08-24T17:55:12.634Z,54.16
2018-08-24T17:57:41.876Z,53.62
2018-08-24T18:00:11.817Z,53.46
2018-08-24T18:02:40.716Z,53.32
2018-08-24T18:05:09.881Z,52.79
2018-08-24T18:07:38.860Z,52.91
2018-08-24T18:10:07.823Z,52.38
2018-08-24T18:12:36.779Z,52.76
2018-08-24T18:15:05.868Z,52.74
2018-08-24T18:17:34.667Z,52.16
2018-08-24T18:20:03.723Z,52.63
2018-08-24T18:22:32.624Z,52.34
2018-08-24T18:25:01.854Z,52.24
2018-08-24T18:27:30.855Z,52.65
2018-08-24T18:29:59.807Z,52.97
2018-08-24T18:32:28.683Z,52.66
2018-08-24T18:35:03.053Z,52.19
2018-08-24T18:37:37.627Z,52.23
2018-08-24T18:40:06.646Z,52.10
2018-08-24T18:42:35.754Z,51.81
2018-08-24T18:45:04.764Z,51.49
2018-08-24T18:47:33.675Z,51.24
2018-08-24T18:50:02.595Z,51.18
2018-08-24T18:52:31.560Z,50.78
2018-08-24T18:55:01.724Z,50.88
2018-08-24T18:57:30.935Z,50.90
2018-08-24T18:59:59.937Z,50.38
2018-08-24T19:02:28.879Z,50.76
2018-08-24T19:05:01.441Z,51.32
2018-08-24T19:07:36.404Z,51.59
2018-08-24T19:10:05.632Z,51.42
2018-08-24T19:12:34.644Z,51.86
2018-08-24T19:15:03.646Z,51.62
2018-08-24T19:17:37.735Z,51.25
2018-08-24T19:20:12.039Z,51.56
2018-08-24T19:22:45.149Z,51.66
2018-08-24T19:25:14.243Z,51.86
2018-08-24T19:27:48.483Z,52.05
2018-08-24T19:30:22.742Z,51.83
2018-08-24T19:32:51.780Z,51.61
2018-08-24T19:35:20.848Z,51.72
2018-08-24T19:37:49.966Z,52.39
2018-08-24T19:40:24.170Z,52.87
2018-08-24T19:42:53.103Z,52.25
2018-08-24T19:45:22.051Z,52.63
2018-08-24T19:47:56.332Z,53.05
2018-08-24T19:50:25.332Z,53.12
2018-08-24T19:52:54.305Z,53.25
2018-08-24T19:55:23.277Z,53.38
2018-08-24T19:57:57.388Z,53.30
2018-08-24T20:00:26.321Z,53.68
2018-08-24T20:02:55.256Z,53.52
2018-08-24T20:05:24.296Z,53.83
2018-08-24T20:07:58.493Z,53.88
2018-08-24T20:10:27.476Z,53.52
2018-08-24T20:12:56.480Z,53.76
2018-08-24T20:15:30.946Z,53.39
2018-08-24T20:17:59.896Z,53.50
2018-08-24T20:20:28.949Z,53.15
2018-08-24T20:23:03.330Z,53.22
2018-08-24T20:25:32.362Z,53.36
2018-08-24T20:28:01.315Z,53.59
2018-08-24T20:30:30.263Z,54.26
2018-08-24T20:32:59.550Z,54.43
2018-08-24T20:35:28.483Z,54.32
2018-08-24T20:37:57.509Z,53.91
2018-08-24T20:40:26.441Z,53.92
2018-08-24T20:42:55.386Z,54.54
2018-08-24T20:45:24.343Z,54.71
2018-08-24T20:47:53.238Z,55.06
2018-08-24T20:50:22.184Z,56.44
2018-08-24T20:52:51.100Z,57.67
2018-08-24T20:55:20.148Z,57.37
2018-08-24T20:57:49.117Z,57.24
2018-08-24T21:00:18.014Z,58.71
2018-08-24T21:02:46.946Z,58.98
2018-08-24T21:05:16.194Z,64.07
2018-08-24T21:07:45.262Z,64.62
2018-08-24T21:10:14.259Z,66.51
2018-08-24T21:12:43.235Z,66.75
2018-08-24T21:15:12.166Z,67.27
2018-08-24T21:17:41.097Z,68.24
2018-08-24T21:20:10.002Z,67.91
2018-08-24T21:22:38.972Z,67.89
2018-08-24T21:25:08.303Z,68.60
2018-08-24T21:27:37.238Z,69.68
2018-08-24T21:30:06.277Z,69.55
2018-08-24T21:32:35.327Z,70.90
2018-08-24T21:35:04.426Z,69.33
2018-08-24T21:37:33.424Z,71.24
2018-08-24T21:40:02.323Z,70.80
2018-08-24T21:42:31.247Z,70.57
2018-08-24T21:45:00.265Z,69.64
2018-08-24T21:47:29.149Z,71.61
2018-08-24T21:49:58.075Z,70.58
2018-08-24T21:52:26.995Z,71.25
2018-08-24T21:54:55.999Z,72.48
2018-08-24T21:57:24.963Z,70.49
2018-08-24T21:59:53.872Z,70.67
2018-08-24T22:02:22.777Z,71.24
2018-08-24T22:04:51.751Z,70.92
2018-08-24T22:07:20.727Z,69.43
2018-08-24T22:09:49.680Z,70.60
2018-08-24T22:12:18.635Z,70.41
2018-08-24T22:14:47.542Z,70.13
2018-08-24T22:17:16.472Z,71.08
2018-08-24T22:19:45.373Z,70.13
2018-08-24T22:22:14.268Z,71.28
2018-08-24T22:24:43.361Z,71.50
2018-08-24T22:27:12.292Z,73.38
2018-08-24T22:29:41.225Z,73.73
2018-08-24T22:32:10.144Z,73.27
2018-08-24T22:34:39.130Z,72.43
2018-08-24T22:37:08.056Z,72.07
2018-08-24T22:39:37.010Z,72.28
2018-08-24T22:42:05.944Z,72.55
2018-08-24T22:44:35.216Z,72.29
2018-08-24T22:47:04.648Z,71.71
2018-08-24T22:49:33.895Z,71.82
2018-08-24T22:52:03.122Z,72.17
2018-08-24T22:54:32.234Z,71.56
2018-08-24T22:57:01.424Z,71.07
2018-08-24T22:59:30.566Z,70.97
2018-08-24T23:01:59.712Z,70.68
2018-08-24T23:04:28.828Z,71.35
2018-08-24T23:06:57.925Z,71.41
2018-08-24T23:09:27.086Z,71.49
2018-08-24T23:11:56.217Z,71.72
2018-08-24T23:14:25.437Z,72.01
2018-08-24T23:16:54.500Z,72.86
2018-08-24T23:19:23.697Z,73.13
2018-08-24T23:21:52.843Z,73.64
2018-08-24T23:24:22.014Z,73.15
2018-08-24T23:26:51.102Z,72.65
2018-08-24T23:29:20.270Z,72.16
2018-08-24T23:31:49.394Z,71.94
2018-08-24T23:34:18.469Z,71.54
2018-08-24T23:36:47.608Z,72.06
2018-08-24T23:39:16.754Z,72.34
2018-08-24T23:41:45.845Z,72.02
2018-08-24T23:44:14.984Z,72.74
2018-08-24T23:46:44.074Z,72.22
2018-08-24T23:49:13.176Z,72.03
2018-08-24T23:51:42.348Z,71.82
2018-08-24T23:54:11.388Z,71.60
2018-08-24T23:56:40.552Z,71.13
2018-08-24T23:59:09.652Z,70.41
